sensor_id;sensor_type;location;lat;lon;timestamp;P1;durP1;ratioP1;P2;durP2;ratioP2
48859;SDS011;34679;51.436;-2.518;2024-01-16T00:00:53;27.13;;;13.55;;
48859;SDS011;34679;51.436;-2.518;2024-01-16T00:03:19;30.85;;;12.95;;
48859;SDS011;34679;51.436;-2.518;2024-01-16T00:05:45;26.25;;;12.15;;
48859;SDS011;34679;51.436;-2.518;2024-01-16T00:08:10;27.27;;;12.98;;
48859;SDS011;34679;51.436;-2.518;2024-01-16T00:10:36;31.00;;;13.77;;
48859;SDS011;34679;51.436;-2.518;2024-01-16T00:13:02;28.85;;;13.00;;
48859;SDS011;34679;51.436;-2.518;2024-01-16T00:15:29;26.55;;;11.63;;
48859;SDS011;34679;51.436;-2.518;2024-01-16T00:17:54;29.10;;;12.00;;
48859;SDS011;34679;51.436;-2.518;2024-01-16T00:20:20;24.25;;;11.80;;
48859;SDS011;34679;51.436;-2.518;2024-01-16T00:22:48;22.58;;;11.80;;
48859;SDS011;34679;51.436;-2.518;2024-01-16T00:25:14;23.80;;;10.85;;
48859;SDS011;34679;51.436;-2.518;2024-01-16T00:27:40;21.27;;;10.40;;
48859;SDS011;34679;51.436;-2.518;2024-01-16T00:30:05;24.70;;;11.23;;
48859;SDS011;34679;51.436;-2.518;2024-01-16T00:32:31;26.02;;;11.32;;
48859;SDS011;34679;51.436;-2.518;2024-01-16T00:34:57;21.33;;;11.32;;
48859;SDS011;34679;51.436;-2.518;2024-01-16T00:37:23;29.48;;;11.25;;
48859;SDS011;34679;51.436;-2.518;2024-01-16T00:39:48;28.33;;;13.57;;
48859;SDS011;34679;51.436;-2.518;2024-01-16T00:42:14;23.92;;;11.10;;
48859;SDS011;34679;51.436;-2.518;2024-01-16T00:44:40;25.77;;;10.98;;
48859;SDS011;34679;51.436;-2.518;2024-01-16T00:47:05;31.95;;;13.32;;
48859;SDS011;34679;51.436;-2.518;2024-01-16T00:49:31;26.00;;;11.35;;
48859;SDS011;34679;51.436;-2.518;2024-01-16T00:51:57;21.48;;;10.80;;
48859;SDS011;34679;51.436;-2.518;2024-01-16T00:54:22;20.65;;;10.68;;
48859;SDS011;34679;51.436;-2.518;2024-01-16T00:56:48;24.40;;;10.65;;
48859;SDS011;34679;51.436;-2.518;2024-01-16T00:59:14;22.77;;;9.90;;
48859;SDS011;34679;51.436;-2.518;2024-01-16T01:01:40;28.83;;;9.65;;
48859;SDS011;34679;51.436;-2.518;2024-01-16T01:04:05;25.92;;;10.50;;
48859;SDS011;34679;51.436;-2.518;2024-01-16T01:06:31;20.02;;;9.50;;
48859;SDS011;34679;51.436;-2.518;2024-01-16T01:08:57;26.45;;;10.68;;
48859;SDS011;34679;51.436;-2.518;2024-01-16T01:11:24;18.23;;;9.75;;
48859;SDS011;34679;51.436;-2.518;2024-01-16T01:13:50;20.35;;;11.10;;
48859;SDS011;34679;51.436;-2.518;2024-01-16T01:16:16;27.88;;;11.32;;
48859;SDS011;34679;51.436;-2.518;2024-01-16T01:18:41;26.00;;;12.10;;
48859;SDS011;34679;51.436;-2.518;2024-01-16T01:21:07;26.75;;;10.60;;
48859;SDS011;34679;51.436;-2.518;2024-01-16T01:23:33;23.10;;;10.68;;
48859;SDS011;34679;51.436;-2.518;2024-01-16T01:25:59;20.48;;;11.23;;
48859;SDS011;34679;51.436;-2.518;2024-01-16T01:28:25;24.45;;;11.40;;
48859;SDS011;34679;51.436;-2.518;2024-01-16T01:30:51;21.98;;;11.23;;
48859;SDS011;34679;51.436;-2.518;2024-01-16T01:33:17;25.40;;;11.00;;
48859;SDS011;34679;51.436;-2.518;2024-01-16T01:35:43;26.55;;;10.63;;
48859;SDS011;34679;51.436;-2.518;2024-01-16T01:38:09;15.60;;;10.10;;
48859;SDS011;34679;51.436;-2.518;2024-01-16T01:40:34;23.77;;;10.57;;
48859;SDS011;34679;51.436;-2.518;2024-01-16T01:45:46;16.70;;;8.95;;
48859;SDS011;34679;51.436;-2.518;2024-01-16T01:48:21;16.52;;;9.15;;
48859;SDS011;34679;51.436;-2.518;2024-01-16T01:50:47;24.80;;;10.05;;
48859;SDS011;34679;51.436;-2.518;2024-01-16T01:53:56;16.70;;;8.25;;
48859;SDS011;34679;51.436;-2.518;2024-01-16T01:56:23;21.20;;;9.35;;
48859;SDS011;34679;51.436;-2.518;2024-01-16T01:58:51;20.58;;;9.15;;
48859;SDS011;34679;51.436;-2.518;2024-01-16T02:01:19;20.33;;;10.10;;
48859;SDS011;34679;51.436;-2.518;2024-01-16T02:03:49;20.50;;;9.50;;
48859;SDS011;34679;51.436;-2.518;2024-01-16T02:06:17;18.60;;;9.35;;
48859;SDS011;34679;51.436;-2.518;2024-01-16T02:08:43;22.35;;;10.05;;
48859;SDS011;34679;51.436;-2.518;2024-01-16T02:11:10;16.63;;;9.63;;
48859;SDS011;34679;51.436;-2.518;2024-01-16T02:13:36;21.35;;;9.85;;
48859;SDS011;34679;51.436;-2.518;2024-01-16T02:16:02;17.88;;;9.40;;
48859;SDS011;34679;51.436;-2.518;2024-01-16T02:18:28;20.77;;;8.65;;
48859;SDS011;34679;51.436;-2.518;2024-01-16T02:20:56;19.30;;;9.80;;
48859;SDS011;34679;51.436;-2.518;2024-01-16T02:23:28;21.10;;;9.48;;
48859;SDS011;34679;51.436;-2.518;2024-01-16T02:25:56;20.77;;;10.60;;
48859;SDS011;34679;51.436;-2.518;2024-01-16T02:28:22;19.55;;;9.68;;
48859;SDS011;34679;51.436;-2.518;2024-01-16T02:30:47;21.17;;;9.27;;
48859;SDS011;34679;51.436;-2.518;2024-01-16T02:33:13;24.65;;;9.82;;
48859;SDS011;34679;51.436;-2.518;2024-01-16T02:35:39;22.88;;;11.02;;
48859;SDS011;34679;51.436;-2.518;2024-01-16T02:38:04;22.40;;;9.80;;
48859;SDS011;34679;51.436;-2.518;2024-01-16T02:40:30;21.42;;;9.23;;
48859;SDS011;34679;51.436;-2.518;2024-01-16T02:42:56;18.50;;;9.07;;
48859;SDS011;34679;51.436;-2.518;2024-01-16T02:45:21;21.63;;;8.82;;
48859;SDS011;34679;51.436;-2.518;2024-01-16T02:47:47;19.35;;;8.68;;
48859;SDS011;34679;51.436;-2.518;2024-01-16T02:50:13;21.70;;;9.02;;
48859;SDS011;34679;51.436;-2.518;2024-01-16T02:52:39;21.88;;;8.95;;
48859;SDS011;34679;51.436;-2.518;2024-01-16T02:55:05;21.00;;;8.52;;
48859;SDS011;34679;51.436;-2.518;2024-01-16T02:57:31;19.17;;;8.90;;
48859;SDS011;34679;51.436;-2.518;2024-01-16T02:59:57;22.48;;;9.55;;
48859;SDS011;34679;51.436;-2.518;2024-01-16T03:02:22;20.30;;;10.40;;
48859;SDS011;34679;51.436;-2.518;2024-01-16T03:04:48;17.80;;;9.25;;
48859;SDS011;34679;51.436;-2.518;2024-01-16T03:07:15;16.05;;;9.00;;
48859;SDS011;34679;51.436;-2.518;2024-01-16T03:09:40;17.58;;;9.50;;
48859;SDS011;34679;51.436;-2.518;2024-01-16T03:12:06;16.80;;;8.63;;
48859;SDS011;34679;51.436;-2.518;2024-01-16T03:14:32;19.35;;;9.25;;
48859;SDS011;34679;51.436;-2.518;2024-01-16T03:17:02;14.73;;;7.18;;
48859;SDS011;34679;51.436;-2.518;2024-01-16T03:19:28;16.95;;;8.55;;
48859;SDS011;34679;51.436;-2.518;2024-01-16T03:21:54;12.13;;;7.00;;
48859;SDS011;34679;51.436;-2.518;2024-01-16T03:24:19;13.02;;;7.38;;
48859;SDS011;34679;51.436;-2.518;2024-01-16T03:26:45;17.00;;;8.25;;
48859;SDS011;34679;51.436;-2.518;2024-01-16T03:29:11;16.42;;;8.25;;
48859;SDS011;34679;51.436;-2.518;2024-01-16T03:31:37;16.15;;;6.95;;
48859;SDS011;34679;51.436;-2.518;2024-01-16T03:34:02;13.10;;;7.55;;
48859;SDS011;34679;51.436;-2.518;2024-01-16T03:36:28;15.90;;;6.78;;
48859;SDS011;34679;51.436;-2.518;2024-01-16T03:38:54;15.10;;;7.80;;
48859;SDS011;34679;51.436;-2.518;2024-01-16T03:41:20;13.30;;;7.38;;
48859;SDS011;34679;51.436;-2.518;2024-01-16T03:43:45;24.13;;;7.70;;
48859;SDS011;34679;51.436;-2.518;2024-01-16T03:46:11;12.80;;;6.47;;
48859;SDS011;34679;51.436;-2.518;2024-01-16T03:48:37;15.55;;;6.40;;
48859;SDS011;34679;51.436;-2.518;2024-01-16T03:51:03;15.43;;;6.85;;
48859;SDS011;34679;51.436;-2.518;2024-01-16T03:53:28;12.65;;;6.35;;
48859;SDS011;34679;51.436;-2.518;2024-01-16T03:55:55;14.35;;;6.53;;
48859;SDS011;34679;51.436;-2.518;2024-01-16T03:58:21;22.63;;;7.45;;
48859;SDS011;34679;51.436;-2.518;2024-01-16T04:00:48;10.63;;;6.25;;
48859;SDS011;34679;51.436;-2.518;2024-01-16T04:03:15;17.20;;;7.35;;
48859;SDS011;34679;51.436;-2.518;2024-01-16T04:05:42;12.48;;;6.60;;
48859;SDS011;34679;51.436;-2.518;2024-01-16T04:08:07;13.27;;;6.63;;
48859;SDS011;34679;51.436;-2.518;2024-01-16T04:10:33;16.10;;;6.40;;
48859;SDS011;34679;51.436;-2.518;2024-01-16T04:13:02;13.98;;;6.65;;
48859;SDS011;34679;51.436;-2.518;2024-01-16T04:15:28;14.43;;;6.28;;
48859;SDS011;34679;51.436;-2.518;2024-01-16T04:17:54;12.00;;;5.63;;
48859;SDS011;34679;51.436;-2.518;2024-01-16T04:20:20;15.25;;;6.75;;
48859;SDS011;34679;51.436;-2.518;2024-01-16T04:22:46;10.70;;;5.50;;
48859;SDS011;34679;51.436;-2.518;2024-01-16T04:25:11;10.57;;;5.15;;
48859;SDS011;34679;51.436;-2.518;2024-01-16T04:27:38;11.80;;;6.13;;
48859;SDS011;34679;51.436;-2.518;2024-01-16T04:30:04;13.75;;;5.70;;
48859;SDS011;34679;51.436;-2.518;2024-01-16T04:32:30;17.15;;;6.68;;
48859;SDS011;34679;51.436;-2.518;2024-01-16T04:34:56;11.90;;;5.95;;
48859;SDS011;34679;51.436;-2.518;2024-01-16T04:37:21;18.80;;;7.32;;
48859;SDS011;34679;51.436;-2.518;2024-01-16T04:39:47;11.23;;;7.20;;
48859;SDS011;34679;51.436;-2.518;2024-01-16T04:42:13;15.10;;;7.13;;
48859;SDS011;34679;51.436;-2.518;2024-01-16T04:44:39;19.88;;;7.90;;
48859;SDS011;34679;51.436;-2.518;2024-01-16T04:47:04;19.90;;;7.30;;
48859;SDS011;34679;51.436;-2.518;2024-01-16T04:49:30;14.93;;;7.20;;
48859;SDS011;34679;51.436;-2.518;2024-01-16T04:51:56;10.85;;;7.18;;
48859;SDS011;34679;51.436;-2.518;2024-01-16T04:54:21;15.52;;;7.30;;
48859;SDS011;34679;51.436;-2.518;2024-01-16T04:56:47;13.80;;;7.60;;
48859;SDS011;34679;51.436;-2.518;2024-01-16T04:59:13;16.23;;;7.07;;
48859;SDS011;34679;51.436;-2.518;2024-01-16T05:01:38;13.52;;;6.28;;
48859;SDS011;34679;51.436;-2.518;2024-01-16T05:04:04;12.60;;;7.95;;
48859;SDS011;34679;51.436;-2.518;2024-01-16T05:06:32;10.20;;;6.40;;
48859;SDS011;34679;51.436;-2.518;2024-01-16T05:08:58;11.35;;;5.95;;
48859;SDS011;34679;51.436;-2.518;2024-01-16T05:11:24;23.63;;;6.57;;
48859;SDS011;34679;51.436;-2.518;2024-01-16T05:13:50;14.30;;;5.90;;
48859;SDS011;34679;51.436;-2.518;2024-01-16T05:16:22;11.48;;;5.38;;
48859;SDS011;34679;51.436;-2.518;2024-01-16T05:18:48;13.43;;;6.80;;
48859;SDS011;34679;51.436;-2.518;2024-01-16T05:21:14;12.68;;;6.00;;
48859;SDS011;34679;51.436;-2.518;2024-01-16T05:23:40;10.65;;;5.43;;
48859;SDS011;34679;51.436;-2.518;2024-01-16T05:26:05;10.20;;;5.00;;
48859;SDS011;34679;51.436;-2.518;2024-01-16T05:28:31;6.72;;;4.50;;
48859;SDS011;34679;51.436;-2.518;2024-01-16T05:30:57;7.97;;;4.53;;
48859;SDS011;34679;51.436;-2.518;2024-01-16T05:33:22;9.48;;;4.97;;
48859;SDS011;34679;51.436;-2.518;2024-01-16T05:35:48;10.25;;;4.65;;
48859;SDS011;34679;51.436;-2.518;2024-01-16T05:38:14;11.52;;;4.97;;
48859;SDS011;34679;51.436;-2.518;2024-01-16T05:40:39;9.02;;;4.78;;
48859;SDS011;34679;51.436;-2.518;2024-01-16T05:43:06;9.40;;;4.85;;
48859;SDS011;34679;51.436;-2.518;2024-01-16T05:45:32;11.70;;;4.72;;
48859;SDS011;34679;51.436;-2.518;2024-01-16T05:47:58;12.70;;;5.65;;
48859;SDS011;34679;51.436;-2.518;2024-01-16T05:50:23;12.07;;;4.72;;
48859;SDS011;34679;51.436;-2.518;2024-01-16T05:52:49;11.65;;;4.97;;
48859;SDS011;34679;51.436;-2.518;2024-01-16T05:55:15;6.90;;;4.30;;
48859;SDS011;34679;51.436;-2.518;2024-01-16T05:57:40;10.02;;;4.07;;
48859;SDS011;34679;51.436;-2.518;2024-01-16T06:00:08;7.95;;;4.32;;
48859;SDS011;34679;51.436;-2.518;2024-01-16T06:02:35;6.78;;;3.53;;
48859;SDS011;34679;51.436;-2.518;2024-01-16T06:05:01;8.93;;;3.88;;
48859;SDS011;34679;51.436;-2.518;2024-01-16T06:07:27;6.50;;;3.80;;
48859;SDS011;34679;51.436;-2.518;2024-01-16T06:09:53;11.43;;;3.80;;
48859;SDS011;34679;51.436;-2.518;2024-01-16T06:12:19;7.30;;;3.65;;
48859;SDS011;34679;51.436;-2.518;2024-01-16T06:14:45;7.18;;;4.10;;
48859;SDS011;34679;51.436;-2.518;2024-01-16T06:17:11;9.93;;;3.85;;
48859;SDS011;34679;51.436;-2.518;2024-01-16T06:19:36;10.07;;;3.78;;
48859;SDS011;34679;51.436;-2.518;2024-01-16T06:22:02;8.75;;;4.22;;
48859;SDS011;34679;51.436;-2.518;2024-01-16T06:24:28;7.82;;;4.00;;
48859;SDS011;34679;51.436;-2.518;2024-01-16T06:26:55;8.20;;;3.05;;
48859;SDS011;34679;51.436;-2.518;2024-01-16T06:29:20;8.40;;;3.95;;
48859;SDS011;34679;51.436;-2.518;2024-01-16T06:31:46;4.53;;;2.90;;
48859;SDS011;34679;51.436;-2.518;2024-01-16T06:34:12;10.45;;;4.28;;
48859;SDS011;34679;51.436;-2.518;2024-01-16T06:36:37;5.25;;;3.40;;
48859;SDS011;34679;51.436;-2.518;2024-01-16T06:39:03;12.15;;;3.80;;
48859;SDS011;34679;51.436;-2.518;2024-01-16T06:41:29;9.75;;;4.82;;
48859;SDS011;34679;51.436;-2.518;2024-01-16T06:43:55;7.22;;;4.20;;
48859;SDS011;34679;51.436;-2.518;2024-01-16T06:46:20;6.75;;;3.50;;
48859;SDS011;34679;51.436;-2.518;2024-01-16T06:48:46;6.22;;;3.75;;
48859;SDS011;34679;51.436;-2.518;2024-01-16T06:51:13;6.25;;;3.78;;
48859;SDS011;34679;51.436;-2.518;2024-01-16T06:53:40;6.22;;;3.08;;
48859;SDS011;34679;51.436;-2.518;2024-01-16T06:56:06;6.22;;;3.40;;
48859;SDS011;34679;51.436;-2.518;2024-01-16T06:58:33;9.15;;;4.10;;
48859;SDS011;34679;51.436;-2.518;2024-01-16T07:01:00;6.25;;;4.13;;
48859;SDS011;34679;51.436;-2.518;2024-01-16T07:03:26;11.45;;;4.43;;
48859;SDS011;34679;51.436;-2.518;2024-01-16T07:05:51;8.20;;;3.75;;
48859;SDS011;34679;51.436;-2.518;2024-01-16T07:08:17;9.18;;;4.53;;
48859;SDS011;34679;51.436;-2.518;2024-01-16T07:10:43;12.95;;;4.55;;
48859;SDS011;34679;51.436;-2.518;2024-01-16T07:13:08;9.63;;;5.40;;
48859;SDS011;34679;51.436;-2.518;2024-01-16T07:15:34;11.73;;;4.93;;
48859;SDS011;34679;51.436;-2.518;2024-01-16T07:18:00;9.98;;;4.80;;
48859;SDS011;34679;51.436;-2.518;2024-01-16T07:20:26;7.40;;;4.35;;
48859;SDS011;34679;51.436;-2.518;2024-01-16T07:22:52;10.65;;;4.72;;
48859;SDS011;34679;51.436;-2.518;2024-01-16T07:25:17;12.23;;;5.15;;
48859;SDS011;34679;51.436;-2.518;2024-01-16T07:27:43;11.18;;;4.80;;
48859;SDS011;34679;51.436;-2.518;2024-01-16T07:30:11;15.30;;;4.90;;
48859;SDS011;34679;51.436;-2.518;2024-01-16T07:32:37;10.10;;;4.35;;
48859;SDS011;34679;51.436;-2.518;2024-01-16T07:35:03;15.63;;;5.30;;
48859;SDS011;34679;51.436;-2.518;2024-01-16T07:37:29;7.65;;;4.68;;
48859;SDS011;34679;51.436;-2.518;2024-01-16T07:39:55;7.63;;;4.38;;
48859;SDS011;34679;51.436;-2.518;2024-01-16T07:42:20;8.60;;;4.95;;
48859;SDS011;34679;51.436;-2.518;2024-01-16T07:44:46;8.65;;;4.85;;
48859;SDS011;34679;51.436;-2.518;2024-01-16T07:47:12;9.60;;;4.60;;
48859;SDS011;34679;51.436;-2.518;2024-01-16T07:49:37;12.38;;;4.97;;
48859;SDS011;34679;51.436;-2.518;2024-01-16T07:52:03;7.90;;;4.40;;
48859;SDS011;34679;51.436;-2.518;2024-01-16T07:54:29;7.32;;;4.57;;
48859;SDS011;34679;51.436;-2.518;2024-01-16T07:56:56;15.73;;;6.45;;
48859;SDS011;34679;51.436;-2.518;2024-01-16T07:59:21;8.68;;;4.32;;
48859;SDS011;34679;51.436;-2.518;2024-01-16T08:01:47;8.50;;;4.40;;
48859;SDS011;34679;51.436;-2.518;2024-01-16T08:04:13;9.77;;;4.93;;
48859;SDS011;34679;51.436;-2.518;2024-01-16T08:06:38;9.10;;;4.72;;
48859;SDS011;34679;51.436;-2.518;2024-01-16T08:09:04;12.07;;;5.22;;
48859;SDS011;34679;51.436;-2.518;2024-01-16T08:11:31;9.93;;;4.22;;
48859;SDS011;34679;51.436;-2.518;2024-01-16T08:13:56;13.90;;;4.88;;
48859;SDS011;34679;51.436;-2.518;2024-01-16T08:16:22;11.25;;;4.97;;
48859;SDS011;34679;51.436;-2.518;2024-01-16T08:18:49;13.55;;;5.32;;
48859;SDS011;34679;51.436;-2.518;2024-01-16T08:21:14;13.32;;;5.45;;
48859;SDS011;34679;51.436;-2.518;2024-01-16T08:23:40;10.05;;;4.93;;
48859;SDS011;34679;51.436;-2.518;2024-01-16T08:26:05;16.50;;;6.10;;
48859;SDS011;34679;51.436;-2.518;2024-01-16T08:28:31;12.23;;;5.32;;
48859;SDS011;34679;51.436;-2.518;2024-01-16T08:30:57;18.55;;;5.07;;
48859;SDS011;34679;51.436;-2.518;2024-01-16T08:33:23;13.50;;;5.07;;
48859;SDS011;34679;51.436;-2.518;2024-01-16T08:35:49;13.75;;;5.00;;
48859;SDS011;34679;51.436;-2.518;2024-01-16T08:38:15;17.42;;;5.47;;
48859;SDS011;34679;51.436;-2.518;2024-01-16T08:40:41;12.68;;;4.93;;
48859;SDS011;34679;51.436;-2.518;2024-01-16T08:43:06;9.18;;;5.30;;
48859;SDS011;34679;51.436;-2.518;2024-01-16T08:45:33;9.45;;;5.05;;
48859;SDS011;34679;51.436;-2.518;2024-01-16T08:47:58;11.48;;;4.75;;
48859;SDS011;34679;51.436;-2.518;2024-01-16T08:50:24;10.02;;;5.97;;
48859;SDS011;34679;51.436;-2.518;2024-01-16T08:52:50;10.43;;;4.80;;
48859;SDS011;34679;51.436;-2.518;2024-01-16T08:55:16;15.10;;;4.93;;
48859;SDS011;34679;51.436;-2.518;2024-01-16T08:57:42;13.20;;;5.50;;
48859;SDS011;34679;51.436;-2.518;2024-01-16T09:00:07;12.68;;;4.50;;
48859;SDS011;34679;51.436;-2.518;2024-01-16T09:02:34;7.53;;;4.13;;
48859;SDS011;34679;51.436;-2.518;2024-01-16T09:05:00;9.18;;;5.20;;
48859;SDS011;34679;51.436;-2.518;2024-01-16T09:07:26;17.58;;;4.82;;
48859;SDS011;34679;51.436;-2.518;2024-01-16T09:09:53;13.30;;;5.05;;
48859;SDS011;34679;51.436;-2.518;2024-01-16T09:12:18;7.90;;;4.43;;
48859;SDS011;34679;51.436;-2.518;2024-01-16T09:14:44;12.90;;;4.50;;
48859;SDS011;34679;51.436;-2.518;2024-01-16T09:17:10;7.85;;;4.10;;
48859;SDS011;34679;51.436;-2.518;2024-01-16T09:19:36;8.77;;;3.55;;
48859;SDS011;34679;51.436;-2.518;2024-01-16T09:22:02;9.40;;;3.33;;
48859;SDS011;34679;51.436;-2.518;2024-01-16T09:24:28;7.15;;;3.53;;
48859;SDS011;34679;51.436;-2.518;2024-01-16T09:26:54;7.20;;;3.17;;
48859;SDS011;34679;51.436;-2.518;2024-01-16T09:29:20;6.90;;;3.47;;
48859;SDS011;34679;51.436;-2.518;2024-01-16T09:31:47;7.65;;;3.13;;
48859;SDS011;34679;51.436;-2.518;2024-01-16T09:34:13;7.78;;;3.25;;
48859;SDS011;34679;51.436;-2.518;2024-01-16T09:36:39;9.45;;;3.55;;
48859;SDS011;34679;51.436;-2.518;2024-01-16T09:39:06;13.05;;;3.70;;
48859;SDS011;34679;51.436;-2.518;2024-01-16T09:41:33;12.20;;;5.30;;
48859;SDS011;34679;51.436;-2.518;2024-01-16T09:43:59;11.88;;;4.47;;
48859;SDS011;34679;51.436;-2.518;2024-01-16T09:46:25;14.15;;;6.05;;
48859;SDS011;34679;51.436;-2.518;2024-01-16T09:48:53;10.73;;;5.60;;
48859;SDS011;34679;51.436;-2.518;2024-01-16T09:51:21;15.80;;;5.68;;
48859;SDS011;34679;51.436;-2.518;2024-01-16T09:53:47;18.45;;;5.75;;
48859;SDS011;34679;51.436;-2.518;2024-01-16T09:56:16;13.93;;;5.35;;
48859;SDS011;34679;51.436;-2.518;2024-01-16T10:01:13;7.32;;;4.13;;
48859;SDS011;34679;51.436;-2.518;2024-01-16T10:03:40;12.10;;;5.20;;
48859;SDS011;34679;51.436;-2.518;2024-01-16T10:06:10;11.02;;;5.22;;
48859;SDS011;34679;51.436;-2.518;2024-01-16T10:08:37;9.27;;;5.38;;
48859;SDS011;34679;51.436;-2.518;2024-01-16T10:11:03;12.85;;;5.25;;
48859;SDS011;34679;51.436;-2.518;2024-01-16T10:13:29;9.80;;;4.55;;
48859;SDS011;34679;51.436;-2.518;2024-01-16T10:15:54;8.02;;;4.68;;
48859;SDS011;34679;51.436;-2.518;2024-01-16T10:18:24;8.45;;;3.83;;
48859;SDS011;34679;51.436;-2.518;2024-01-16T10:20:57;13.52;;;4.65;;
48859;SDS011;34679;51.436;-2.518;2024-01-16T10:23:26;9.98;;;3.88;;
48859;SDS011;34679;51.436;-2.518;2024-01-16T10:26:06;11.00;;;3.88;;
48859;SDS011;34679;51.436;-2.518;2024-01-16T10:28:40;9.32;;;4.15;;
48859;SDS011;34679;51.436;-2.518;2024-01-16T10:31:07;9.55;;;4.05;;
48859;SDS011;34679;51.436;-2.518;2024-01-16T10:33:34;14.93;;;4.90;;
48859;SDS011;34679;51.436;-2.518;2024-01-16T10:36:07;9.23;;;5.22;;
48859;SDS011;34679;51.436;-2.518;2024-01-16T10:38:44;11.00;;;5.82;;
48859;SDS011;34679;51.436;-2.518;2024-01-16T10:41:13;11.07;;;5.05;;
48859;SDS011;34679;51.436;-2.518;2024-01-16T10:43:40;8.43;;;4.28;;
48859;SDS011;34679;51.436;-2.518;2024-01-16T10:46:06;15.82;;;4.20;;
48859;SDS011;34679;51.436;-2.518;2024-01-16T10:48:33;7.97;;;3.65;;
48859;SDS011;34679;51.436;-2.518;2024-01-16T10:50:58;11.32;;;4.10;;
48859;SDS011;34679;51.436;-2.518;2024-01-16T10:53:24;6.82;;;4.03;;
48859;SDS011;34679;51.436;-2.518;2024-01-16T10:55:53;9.80;;;3.80;;
48859;SDS011;34679;51.436;-2.518;2024-01-16T10:58:22;10.05;;;3.97;;
48859;SDS011;34679;51.436;-2.518;2024-01-16T11:00:53;11.27;;;4.32;;
48859;SDS011;34679;51.436;-2.518;2024-01-16T11:03:24;9.65;;;4.30;;
48859;SDS011;34679;51.436;-2.518;2024-01-16T11:05:57;6.72;;;4.40;;
48859;SDS011;34679;51.436;-2.518;2024-01-16T11:08:23;9.50;;;3.78;;
48859;SDS011;34679;51.436;-2.518;2024-01-16T11:10:55;10.48;;;3.70;;
48859;SDS011;34679;51.436;-2.518;2024-01-16T11:13:23;5.47;;;2.78;;
48859;SDS011;34679;51.436;-2.518;2024-01-16T11:15:49;5.50;;;2.75;;
48859;SDS011;34679;51.436;-2.518;2024-01-16T11:18:16;9.95;;;2.60;;
48859;SDS011;34679;51.436;-2.518;2024-01-16T11:20:42;5.28;;;2.70;;
48859;SDS011;34679;51.436;-2.518;2024-01-16T11:23:10;6.30;;;1.98;;
48859;SDS011;34679;51.436;-2.518;2024-01-16T11:25:37;10.38;;;1.48;;
48859;SDS011;34679;51.436;-2.518;2024-01-16T11:28:26;6.18;;;0.90;;
48859;SDS011;34679;51.436;-2.518;2024-01-16T11:30:54;7.68;;;0.85;;
48859;SDS011;34679;51.436;-2.518;2024-01-16T11:35:58;5.30;;;0.80;;
48859;SDS011;34679;51.436;-2.518;2024-01-16T11:38:24;5.00;;;0.90;;
48859;SDS011;34679;51.436;-2.518;2024-01-16T11:40:53;4.90;;;0.70;;
48859;SDS011;34679;51.436;-2.518;2024-01-16T11:46:04;3.20;;;0.77;;
48859;SDS011;34679;51.436;-2.518;2024-01-16T11:48:32;8.32;;;1.02;;
48859;SDS011;34679;51.436;-2.518;2024-01-16T11:50:58;3.45;;;0.70;;
48859;SDS011;34679;51.436;-2.518;2024-01-16T12:01:19;2.20;;;0.80;;
48859;SDS011;34679;51.436;-2.518;2024-01-16T12:03:46;2.75;;;0.70;;
48859;SDS011;34679;51.436;-2.518;2024-01-16T12:06:15;1.48;;;0.77;;
48859;SDS011;34679;51.436;-2.518;2024-01-16T12:08:41;6.03;;;2.88;;
48859;SDS011;34679;51.436;-2.518;2024-01-16T12:11:07;8.55;;;2.53;;
48859;SDS011;34679;51.436;-2.518;2024-01-16T12:13:32;6.78;;;2.80;;
48859;SDS011;34679;51.436;-2.518;2024-01-16T12:16:02;4.15;;;1.05;;
48859;SDS011;34679;51.436;-2.518;2024-01-16T12:18:31;4.20;;;0.90;;
48859;SDS011;34679;51.436;-2.518;2024-01-16T12:20:56;1.80;;;0.88;;
48859;SDS011;34679;51.436;-2.518;2024-01-16T12:23:23;2.30;;;0.68;;
48859;SDS011;34679;51.436;-2.518;2024-01-16T12:25:52;8.45;;;0.93;;
48859;SDS011;34679;51.436;-2.518;2024-01-16T12:28:21;2.97;;;0.95;;
48859;SDS011;34679;51.436;-2.518;2024-01-16T12:30:50;4.03;;;1.70;;
48859;SDS011;34679;51.436;-2.518;2024-01-16T12:33:16;4.28;;;0.80;;
48859;SDS011;34679;51.436;-2.518;2024-01-16T12:35:46;9.85;;;1.17;;
48859;SDS011;34679;51.436;-2.518;2024-01-16T12:38:14;4.57;;;2.17;;
48859;SDS011;34679;51.436;-2.518;2024-01-16T12:40:42;2.78;;;1.10;;
48859;SDS011;34679;51.436;-2.518;2024-01-16T12:43:09;3.83;;;1.25;;
48859;SDS011;34679;51.436;-2.518;2024-01-16T12:45:35;2.40;;;1.58;;
48859;SDS011;34679;51.436;-2.518;2024-01-16T12:48:01;4.55;;;1.55;;
48859;SDS011;34679;51.436;-2.518;2024-01-16T12:50:30;3.33;;;1.30;;
48859;SDS011;34679;51.436;-2.518;2024-01-16T12:53:06;2.80;;;0.60;;
48859;SDS011;34679;51.436;-2.518;2024-01-16T12:55:37;5.72;;;1.25;;
48859;SDS011;34679;51.436;-2.518;2024-01-16T12:58:17;2.05;;;1.02;;
48859;SDS011;34679;51.436;-2.518;2024-01-16T13:00:44;0.82;;;0.80;;
48859;SDS011;34679;51.436;-2.518;2024-01-16T13:03:14;5.18;;;0.80;;
48859;SDS011;34679;51.436;-2.518;2024-01-16T13:05:55;3.78;;;0.73;;
48859;SDS011;34679;51.436;-2.518;2024-01-16T13:08:23;1.83;;;0.90;;
48859;SDS011;34679;51.436;-2.518;2024-01-16T13:11:02;1.95;;;0.80;;
48859;SDS011;34679;51.436;-2.518;2024-01-16T13:13:32;1.92;;;1.00;;
48859;SDS011;34679;51.436;-2.518;2024-01-16T13:15:59;1.33;;;0.60;;
48859;SDS011;34679;51.436;-2.518;2024-01-16T13:18:26;1.95;;;0.50;;
48859;SDS011;34679;51.436;-2.518;2024-01-16T13:20:55;4.47;;;0.60;;
48859;SDS011;34679;51.436;-2.518;2024-01-16T13:23:22;4.10;;;0.80;;
48859;SDS011;34679;51.436;-2.518;2024-01-16T13:25:52;1.73;;;0.80;;
48859;SDS011;34679;51.436;-2.518;2024-01-16T13:28:20;1.33;;;0.60;;
48859;SDS011;34679;51.436;-2.518;2024-01-16T13:30:47;1.90;;;0.70;;
48859;SDS011;34679;51.436;-2.518;2024-01-16T13:33:13;0.82;;;0.82;;
48859;SDS011;34679;51.436;-2.518;2024-01-16T13:35:41;2.40;;;0.57;;
48859;SDS011;34679;51.436;-2.518;2024-01-16T13:38:08;0.70;;;0.55;;
48859;SDS011;34679;51.436;-2.518;2024-01-16T13:40:37;1.50;;;0.55;;
48859;SDS011;34679;51.436;-2.518;2024-01-16T13:43:03;4.32;;;0.68;;
48859;SDS011;34679;51.436;-2.518;2024-01-16T13:45:29;2.90;;;0.70;;
48859;SDS011;34679;51.436;-2.518;2024-01-16T13:47:56;3.53;;;0.70;;
48859;SDS011;34679;51.436;-2.518;2024-01-16T13:50:22;1.30;;;0.63;;
48859;SDS011;34679;51.436;-2.518;2024-01-16T13:52:48;1.88;;;0.85;;
48859;SDS011;34679;51.436;-2.518;2024-01-16T13:55:14;2.08;;;1.00;;
48859;SDS011;34679;51.436;-2.518;2024-01-16T13:57:40;1.45;;;0.80;;
48859;SDS011;34679;51.436;-2.518;2024-01-16T14:00:07;4.30;;;0.95;;
48859;SDS011;34679;51.436;-2.518;2024-01-16T14:02:45;2.03;;;0.90;;
48859;SDS011;34679;51.436;-2.518;2024-01-16T14:05:14;1.88;;;1.00;;
48859;SDS011;34679;51.436;-2.518;2024-01-16T14:07:43;3.10;;;1.20;;
48859;SDS011;34679;51.436;-2.518;2024-01-16T14:10:15;4.03;;;1.45;;
48859;SDS011;34679;51.436;-2.518;2024-01-16T14:12:43;4.50;;;1.17;;
48859;SDS011;34679;51.436;-2.518;2024-01-16T14:15:19;2.92;;;1.27;;
48859;SDS011;34679;51.436;-2.518;2024-01-16T14:17:49;4.13;;;1.20;;
48859;SDS011;34679;51.436;-2.518;2024-01-16T14:20:15;3.50;;;0.80;;
48859;SDS011;34679;51.436;-2.518;2024-01-16T14:22:41;4.07;;;1.25;;
48859;SDS011;34679;51.436;-2.518;2024-01-16T14:25:08;2.97;;;0.90;;
48859;SDS011;34679;51.436;-2.518;2024-01-16T14:27:42;3.25;;;1.30;;
48859;SDS011;34679;51.436;-2.518;2024-01-16T14:30:10;4.18;;;1.13;;
48859;SDS011;34679;51.436;-2.518;2024-01-16T14:32:37;3.50;;;0.93;;
48859;SDS011;34679;51.436;-2.518;2024-01-16T14:35:05;3.70;;;1.70;;
48859;SDS011;34679;51.436;-2.518;2024-01-16T14:37:32;12.07;;;1.52;;
48859;SDS011;34679;51.436;-2.518;2024-01-16T14:39:59;3.60;;;1.50;;
48859;SDS011;34679;51.436;-2.518;2024-01-16T14:42:40;2.50;;;1.20;;